Time;durP1;ratioP1;P1;durP2;ratioP2;P2;SDS_P1;SDS_P2;PMS_P1;PMS_P2;Temp;Humidity;BMP_temperature;BMP_pressure;BME280_temperature;BME280_humidity;BME280_pressure;Samples;Min_cycle;Max_cycle;Signal;HPM_P1;HPM_P2
2022/02/16 00:00:21;;;;;;;46.03;23.17;;;;;;;4.21;100.00;100001.66;6295510;28;20131;-72
2022/02/16 00:03:22;;;;;;;39.13;22.27;;;;;;;4.16;100.00;100005.31;6295563;28;20129;-73
2022/02/16 00:06:23;;;;;;;43.35;23.08;;;;;;;4.21;100.00;99998.25;6278962;28;20036;-72
2022/02/16 00:09:24;;;;;;;43.63;22.17;;;;;;;4.17;100.00;100007.84;6278777;28;20563;-72
2022/02/16 00:12:24;;;;;;;43.42;23.50;;;;;;;4.19;100.00;100011.22;6296592;28;20036;-72
2022/02/16 00:15:28;;;;;;;45.22;24.10;;;;;;;4.09;100.00;100016.75;6295306;28;20112;-72
2022/02/16 00:18:29;;;;;;;41.58;23.40;;;;;;;4.11;100.00;100002.88;6295321;28;20174;-72
2022/02/16 00:21:30;;;;;;;47.67;24.15;;;;;;;4.12;100.00;99995.97;6295075;28;20046;-72
2022/02/16 00:24:31;;;;;;;43.25;22.83;;;;;;;4.13;100.00;99995.09;6278412;28;20052;-69
2022/02/16 00:27:32;;;;;;;44.65;23.67;;;;;;;4.14;100.00;99994.19;6295113;28;20044;-72
2022/02/16 00:30:33;;;;;;;41.47;23.27;;;;;;;4.12;100.00;99998.56;6296186;28;20449;-72
2022/02/16 00:33:33;;;;;;;42.33;23.05;;;;;;;4.10;100.00;99998.63;6295013;28;20045;-72
2022/02/16 00:36:34;;;;;;;48.30;24.00;;;;;;;4.08;100.00;99995.25;6296175;28;20056;-69
2022/02/16 00:39:35;;;;;;;43.13;23.60;;;;;;;4.07;100.00;100000.47;6278049;28;20067;-72
2022/02/16 00:42:36;;;;;;;44.05;22.83;;;;;;;4.09;100.00;100004.69;6294792;28;20127;-72
2022/02/16 00:45:37;;;;;;;45.78;22.90;;;;;;;4.13;100.00;100015.75;6294821;28;20383;-68
2022/02/16 00:48:38;;;;;;;45.10;23.30;;;;;;;4.12;100.00;100009.75;6278116;28;20075;-68
2022/02/16 00:51:39;;;;;;;41.00;22.70;;;;;;;4.09;100.00;100012.44;6294202;28;20048;-68
2022/02/16 00:54:40;;;;;;;42.17;22.52;;;;;;;4.09;100.00;100002.09;6278062;28;20044;-69
2022/02/16 00:57:40;;;;;;;43.83;22.90;;;;;;;4.03;100.00;100008.31;6294981;28;20053;-69
2022/02/16 01:00:41;;;;;;;47.60;23.55;;;;;;;4.03;100.00;100002.31;6278032;28;20398;-72
2022/02/16 01:03:42;;;;;;;39.90;22.55;;;;;;;3.97;100.00;99989.63;6261261;28;20052;-69
2022/02/16 01:06:43;;;;;;;40.30;22.90;;;;;;;3.91;100.00;99985.53;6295904;28;20045;-69
2022/02/16 01:09:44;;;;;;;46.17;22.95;;;;;;;3.84;100.00;99968.56;6294829;28;20045;-72
2022/02/16 01:12:45;;;;;;;39.13;22.65;;;;;;;3.86;100.00;99974.50;6294497;28;20388;-71
2022/02/16 01:15:46;;;;;;;40.85;22.23;;;;;;;3.86;100.00;99982.25;6278042;28;20071;-72
2022/02/16 01:18:46;;;;;;;44.17;23.88;;;;;;;3.90;100.00;99977.84;6277879;28;20045;-68
2022/02/16 01:21:47;;;;;;;40.53;22.85;;;;;;;3.91;100.00;99982.09;6294336;28;20095;-69
2022/02/16 01:24:48;;;;;;;35.25;21.35;;;;;;;3.89;100.00;99982.16;6277731;28;20045;-69
2022/02/16 01:27:48;;;;;;;45.92;23.13;;;;;;;3.82;100.00;99963.44;6294503;28;20036;-68
2022/02/16 01:30:49;;;;;;;40.22;21.65;;;;;;;3.81;100.00;99953.19;6294288;28;20068;-72
2022/02/16 01:33:50;;;;;;;41.95;23.27;;;;;;;3.74;100.00;99949.13;6277722;28;20043;-68
2022/02/16 01:36:51;;;;;;;45.10;23.10;;;;;;;3.71;100.00;99949.25;6277609;28;20040;-69
2022/02/16 01:39:52;;;;;;;44.50;23.58;;;;;;;3.63;100.00;99946.91;6294105;28;20048;-68
2022/02/16 01:42:52;;;;;;;43.53;23.17;;;;;;;3.69;100.00;99962.19;6294218;28;20399;-68
2022/02/16 01:45:53;;;;;;;46.75;21.95;;;;;;;3.68;100.00;99959.66;6295364;28;20051;-72
2022/02/16 01:48:55;;;;;;;38.83;21.92;;;;;;;3.61;100.00;99957.28;6277518;28;20081;-72
2022/02/16 01:51:56;;;;;;;45.47;24.07;;;;;;;3.61;100.00;99941.78;6294096;28;20395;-68
2022/02/16 01:54:57;;;;;;;40.38;22.77;;;;;;;3.49;100.00;99937.06;6277243;28;20293;-69
2022/02/16 01:58:01;;;;;;;46.43;24.03;;;;;;;3.57;100.00;99924.72;6295290;28;20036;-69
2022/02/16 02:01:05;;;;;;;40.45;22.20;;;;;;;3.61;100.00;99917.75;6294001;28;20439;-69
2022/02/16 02:04:07;;;;;;;36.75;20.48;;;;;;;3.57;100.00;99906.69;6295916;28;20072;-69
2022/02/16 02:07:07;;;;;;;44.67;22.83;;;;;;;3.54;100.00;99917.13;6298370;28;20055;-69
2022/02/16 02:10:09;;;;;;;42.45;23.52;;;;;;;3.57;100.00;99919.56;6298085;28;20044;-71
2022/02/16 02:13:10;;;;;;;;;;;;;;;3.53;100.00;99915.41;6298471;28;20060;-68
2022/02/16 02:16:13;;;;;;;40.63;21.27;;;;;;;3.53;100.00;99915.41;6299319;28;19921;-68
2022/02/16 02:19:15;;;;;;;41.47;22.17;;;;;;;3.59;100.00;99922.09;6297986;28;20040;-72
2022/02/16 02:22:15;;;;;;;36.67;21.50;;;;;;;3.58;100.00;99931.59;6298126;28;20036;-68
2022/02/16 02:25:17;;;;;;;42.45;21.98;;;;;;;3.56;100.00;99930.81;6299033;28;20044;-69
2022/02/16 02:28:21;;;;;;;45.13;22.83;;;;;;;3.58;100.00;99931.59;6299048;28;20047;-68
2022/02/16 02:31:34;;;;;;;40.67;22.98;;;;;;;3.53;100.00;99923.16;6297613;28;20055;-72
2022/02/16 02:34:35;;;;;;;43.08;22.52;;;;;;;3.55;100.00;99921.38;6297715;28;20037;-69
2022/02/16 02:37:40;;;;;;;43.80;22.10;;;;;;;3.56;100.00;99922.19;6298869;28;20040;-69
2022/02/16 02:40:41;;;;;;;47.38;21.63;;;;;;;3.57;100.00;99918.75;6297367;28;20060;-68
2022/02/16 02:43:44;;;;;;;40.67;22.27;;;;;;;3.53;100.00;99930.06;6298529;28;20055;-69
2022/02/16 02:46:45;;;;;;;42.50;21.45;;;;;;;3.60;100.00;99941.84;6298899;28;20410;-70
2022/02/16 02:49:45;;;;;;;39.03;21.65;;;;;;;3.66;100.00;99931.31;6298602;28;20045;-69
2022/02/16 02:52:46;;;;;;;42.55;22.55;;;;;;;3.67;100.00;99934.75;6298495;28;20128;-69
2022/02/16 02:55:48;;;;;;;46.35;22.17;;;;;;;3.71;100.00;99924.28;6298408;28;20119;-68
2022/02/16 02:58:49;;;;;;;40.17;21.38;;;;;;;3.71;100.00;99923.44;6297014;28;20053;-69
2022/02/16 03:01:49;;;;;;;42.20;23.55;;;;;;;3.73;100.00;99916.47;6280502;28;20048;-69
2022/02/16 03:04:50;;;;;;;41.70;23.23;;;;;;;3.70;100.00;99925.16;6296964;28;20041;-72
2022/02/16 03:07:51;;;;;;;43.33;22.55;;;;;;;3.72;100.00;99920.78;6297127;28;20052;-69
2022/02/16 03:10:52;;;;;;;42.25;22.95;;;;;;;3.77;100.00;99913.72;6296717;28;20048;-68
2022/02/16 03:13:53;;;;;;;42.13;23.13;;;;;;;3.82;100.00;99911.81;6263756;28;20080;-69
2022/02/16 03:16:54;;;;;;;42.00;22.38;;;;;;;3.89;100.00;99914.19;6279973;28;20056;-72
2022/02/16 03:19:54;;;;;;;42.90;22.20;;;;;;;3.93;100.00;99902.84;6297847;28;20036;-68
2022/02/16 03:22:55;;;;;;;39.15;22.08;;;;;;;3.94;100.00;99909.72;6279972;28;20502;-71
2022/02/16 03:25:56;;;;;;;41.50;21.85;;;;;;;3.92;100.00;99921.84;6297599;28;20040;-69
2022/02/16 03:28:57;;;;;;;45.10;23.58;;;;;;;3.94;100.00;99920.03;6296405;28;20041;-68
2022/02/16 03:31:57;;;;;;;43.28;22.67;;;;;;;3.96;100.00;99908.75;6297603;28;20082;-68
2022/02/16 03:34:59;;;;;;;40.42;22.00;;;;;;;3.93;100.00;99890.81;6262960;28;20495;-68
2022/02/16 03:38:00;;;;;;;41.70;22.60;;;;;;;3.97;100.00;99896.69;6297235;28;20483;-68
2022/02/16 03:41:01;;;;;;;41.58;22.40;;;;;;;3.91;100.00;99894.31;6295786;28;20106;-68
2022/02/16 03:44:02;;;;;;;37.03;21.65;;;;;;;3.94;100.00;99894.22;6246157;28;20082;-72
2022/02/16 03:47:03;;;;;;;42.88;23.10;;;;;;;3.89;100.00;99886.66;6296018;28;20184;-70
2022/02/16 03:50:04;;;;;;;43.08;22.42;;;;;;;3.98;100.00;99893.22;6295922;28;20509;-72
2022/02/16 03:53:05;;;;;;;42.55;23.65;;;;;;;4.00;100.00;99891.41;6295767;28;20487;-69
2022/02/16 03:56:06;;;;;;;37.72;21.52;;;;;;;3.96;100.00;99902.75;6278974;28;20060;-69
2022/02/16 03:59:07;;;;;;;38.95;22.13;;;;;;;3.99;100.00;99892.28;6296775;28;20048;-69
2022/02/16 04:02:08;;;;;;;38.10;21.60;;;;;;;3.90;100.00;99884.91;6295535;28;20040;-72
2022/02/16 04:05:09;;;;;;;41.65;22.13;;;;;;;3.89;100.00;99880.63;6296628;28;20044;-72
2022/02/16 04:08:10;;;;;;;43.03;21.50;;;;;;;3.94;100.00;99891.63;6296701;28;20040;-72
2022/02/16 04:11:11;;;;;;;39.58;21.95;;;;;;;3.96;100.00;99889.84;6295501;28;20099;-68
2022/02/16 04:14:12;;;;;;;37.88;20.80;;;;;;;4.00;100.00;99881.09;6278684;28;20062;-69
2022/02/16 04:17:12;;;;;;;39.65;21.77;;;;;;;4.00;100.00;99889.66;6296508;28;20063;-68
2022/02/16 04:20:14;;;;;;;43.50;22.75;;;;;;;3.97;100.00;99878.59;6296404;28;20048;-68
2022/02/16 04:23:16;;;;;;;44.43;23.43;;;;;;;3.94;100.00;99876.16;6296515;28;20045;-72
2022/02/16 04:26:17;;;;;;;45.07;24.97;;;;;;;3.88;100.00;99874.63;6278146;28;20284;-72
2022/02/16 04:29:17;;;;;;;47.92;25.23;;;;;;;3.86;100.00;99888.50;6278435;28;20052;-72
2022/02/16 04:32:18;;;;;;;47.00;24.60;;;;;;;3.97;100.00;99868.28;6296187;28;20048;-72
2022/02/16 04:35:19;;;;;;;44.13;23.20;;;;;;;3.99;100.00;99881.97;6278481;28;20553;-71
2022/02/16 04:38:20;;;;;;;45.90;24.23;;;;;;;3.87;100.00;99874.66;6294752;28;20398;-72
2022/02/16 04:41:21;;;;;;;42.58;22.10;;;;;;;3.89;100.00;99873.75;6294829;28;20079;-72
2022/02/16 04:44:22;;;;;;;43.20;22.55;;;;;;;4.03;100.00;99876.63;6278276;28;20051;-72
2022/02/16 04:47:23;;;;;;;44.72;22.70;;;;;;;4.11;100.00;99878.94;6278261;28;20087;-73
2022/02/16 04:50:24;;;;;;;45.60;23.95;;;;;;;4.06;100.00;99864.50;6294768;28;20060;-72
2022/02/16 04:53:27;;;;;;;40.38;21.98;;;;;;;4.06;100.00;99873.13;6295914;28;20042;-72
2022/02/16 04:56:28;;;;;;;40.25;22.80;;;;;;;4.10;100.00;99869.53;6278416;28;20102;-72
2022/02/16 04:59:29;;;;;;;42.35;22.63;;;;;;;4.01;100.00;99869.84;6294657;28;20041;-72
2022/02/16 05:02:30;;;;;;;43.55;23.52;;;;;;;4.07;100.00;99874.78;6294795;28;20037;-72
2022/02/16 05:05:31;;;;;;;46.63;23.95;;;;;;;4.12;100.00;99864.28;6295839;28;20440;-72
2022/02/16 05:08:32;;;;;;;47.75;25.38;;;;;;;4.05;100.00;99871.41;6294744;28;20048;-72
2022/02/16 05:11:33;;;;;;;113.70;44.03;;;;;;;4.06;100.00;99870.53;6277955;28;20045;-72
2022/02/16 05:14:34;;;;;;;133.00;48.10;;;;;;;4.12;100.00;99872.88;6277839;28;20040;-72
2022/02/16 05:17:35;;;;;;;77.55;32.80;;;;;;;4.18;100.00;99874.38;6277814;28;20451;-72
2022/02/16 05:20:36;;;;;;;59.58;28.70;;;;;;;4.23;100.00;99872.47;6294368;28;20051;-68
2022/02/16 05:23:37;;;;;;;60.83;29.88;;;;;;;4.24;100.00;99876.72;6295737;28;20062;-69
2022/02/16 05:26:38;;;;;;;44.33;23.83;;;;;;;4.24;100.00;99861.22;6277613;28;20514;-69
2022/02/16 05:29:39;;;;;;;50.40;27.02;;;;;;;4.24;100.00;99866.41;6295739;28;20043;-72
2022/02/16 05:32:41;;;;;;;54.88;26.23;;;;;;;4.22;100.00;99870.78;6294280;28;20052;-69
2022/02/16 05:35:41;;;;;;;52.58;26.70;;;;;;;4.23;100.00;99869.91;6295460;28;20119;-72
2022/02/16 05:38:42;;;;;;;50.72;27.30;;;;;;;4.18;100.00;99864.03;6278981;28;20048;-72
2022/02/16 05:41:43;;;;;;;49.92;26.02;;;;;;;4.20;100.00;99862.25;6282196;28;20055;-69
2022/02/16 05:44:44;;;;;;;49.53;24.67;;;;;;;4.21;100.00;99869.13;6298717;28;20063;-69
2022/02/16 05:47:45;;;;;;;48.78;26.90;;;;;;;4.24;100.00;99872.44;6298637;28;20048;-69
2022/02/16 05:50:49;;;;;;;51.17;24.88;;;;;;;4.21;100.00;99885.44;6282238;28;20044;-69
2022/02/16 05:53:50;;;;;;;42.00;21.45;;;;;;;4.26;100.00;99872.34;6298472;28;20059;-72
2022/02/16 05:56:51;;;;;;;32.38;18.73;;;;;;;4.31;100.00;99877.38;6298654;28;20484;-73
2022/02/16 05:59:51;;;;;;;32.13;17.40;;;;;;;4.40;100.00;99875.25;6281894;28;20445;-72
2022/02/16 06:02:52;;;;;;;30.88;16.95;;;;;;;4.46;100.00;99875.94;6299743;28;20044;-72
2022/02/16 06:05:53;;;;;;;28.92;17.25;;;;;;;4.49;100.00;99868.91;6281727;28;20071;-68
2022/02/16 06:08:54;;;;;;;26.98;15.23;;;;;;;4.48;100.00;99867.22;6298457;28;20468;-72
2022/02/16 06:11:55;;;;;;;29.33;15.63;;;;;;;4.57;100.00;99863.41;6298272;28;20407;-72
2022/02/16 06:14:56;;;;;;;28.10;16.52;;;;;;;4.59;100.00;99862.47;6264930;28;20056;-68
2022/02/16 06:17:56;;;;;;;56.55;31.50;;;;;;;4.71;100.00;99850.78;6265061;28;20049;-72
2022/02/16 06:20:57;;;;;;;62.88;36.83;;;;;;;4.84;100.00;99848.56;6299188;28;20123;-72
2022/02/16 06:23:58;;;;;;;62.63;31.45;;;;;;;4.88;100.00;99855.31;6281284;28;20106;-72
2022/02/16 06:26:59;;;;;;;59.70;28.30;;;;;;;4.97;100.00;99859.25;6299041;28;20041;-73
2022/02/16 06:30:01;;;;;;;43.60;22.08;;;;;;;5.07;100.00;99868.31;6264640;28;20044;-69
2022/02/16 06:33:02;;;;;;;39.72;20.52;;;;;;;5.14;100.00;99868.91;6297840;28;20067;-69
2022/02/16 06:36:03;;;;;;;29.77;13.77;;;;;;;5.17;100.00;99871.38;6297718;28;20049;-69
2022/02/16 06:39:04;;;;;;;23.85;12.80;;;;;;;5.27;100.00;99885.56;6280903;28;20064;-69
2022/02/16 06:42:07;;;;;;;25.90;12.27;;;;;;;5.30;100.00;99882.88;6281150;28;20049;-69
2022/02/16 06:45:09;;;;;;;22.17;11.90;;;;;;;5.33;100.00;99890.50;6297380;28;20415;-69
2022/02/16 06:48:10;;;;;;;20.55;12.15;;;;;;;5.39;100.00;99898.00;6297326;28;20068;-69
2022/02/16 06:51:11;;;;;;;26.92;13.00;;;;;;;5.46;100.00;99908.94;6280225;28;20049;-72
2022/02/16 06:54:12;;;;;;;23.25;12.35;;;;;;;5.45;100.00;99913.25;6280497;28;20049;-68
2022/02/16 06:57:13;;;;;;;23.38;12.57;;;;;;;5.57;100.00;99916.25;6297070;28;20052;-69
2022/02/16 07:00:14;;;;;;;27.23;12.30;;;;;;;5.50;100.00;99918.28;6296942;28;20052;-69
2022/02/16 07:03:17;;;;;;;26.02;11.68;;;;;;;5.56;100.00;99914.56;6297089;28;20041;-73
2022/02/16 07:06:18;;;;;;;25.35;11.23;;;;;;;5.57;100.00;99911.06;6297944;28;20048;-72
2022/02/16 07:09:18;;;;;;;25.00;11.80;;;;;;;5.68;100.00;99911.44;6280079;28;20151;-69
2022/02/16 07:12:19;;;;;;;28.15;12.43;;;;;;;5.50;100.00;99907.06;6296573;28;20051;-69
2022/02/16 07:15:20;;;;;;;35.08;20.85;;;;;;;5.56;100.00;99906.78;6296535;28;20052;-68
2022/02/16 07:18:22;;;;;;;25.77;12.88;;;;;;;5.55;100.00;99905.97;6279797;28;20052;-69
2022/02/16 07:21:24;;;;;;;25.33;14.10;;;;;;;5.60;100.00;99916.09;6279847;28;20131;-68
2022/02/16 07:24:24;;;;;;;24.37;13.10;;;;;;;5.77;100.00;99910.22;6279841;28;20060;-69
2022/02/16 07:27:27;;;;;;;24.75;13.05;;;;;;;5.58;100.00;99905.84;6296210;28;20040;-72
2022/02/16 07:30:28;;;;;;;24.65;12.82;;;;;;;5.51;100.00;99908.75;6277155;28;20051;-68
2022/02/16 07:33:29;;;;;;;26.40;14.25;;;;;;;5.63;100.00;99919.41;6289163;28;20091;-68
2022/02/16 07:36:30;;;;;;;24.60;13.25;;;;;;;5.57;100.00;99911.06;6282160;28;20075;-69
2022/02/16 07:39:31;;;;;;;27.30;13.63;;;;;;;5.51;100.00;99912.16;6282802;28;20068;-69
2022/02/16 07:42:32;;;;;;;23.00;13.65;;;;;;;5.53;100.00;99912.94;6296305;28;20071;-73
2022/02/16 07:45:33;;;;;;;25.50;14.25;;;;;;;5.51;100.00;99898.41;6282893;28;20112;-72
2022/02/16 07:48:34;;;;;;;29.63;15.40;;;;;;;5.52;100.00;99890.56;6272235;28;20516;-72
2022/02/16 07:51:35;;;;;;;26.88;14.45;;;;;;;5.46;100.00;99888.25;6291635;28;20506;-72
2022/02/16 07:54:36;;;;;;;31.40;17.50;;;;;;;5.53;100.00;99892.25;6279288;28;20054;-73
2022/02/16 07:57:38;;;;;;;43.50;17.83;;;;;;;5.57;100.00;99909.31;6271533;28;20052;-72
2022/02/16 08:00:39;;;;;;;27.40;12.65;;;;;;;5.56;100.00;99901.63;6270199;28;20056;-72
2022/02/16 08:03:41;;;;;;;27.33;14.43;;;;;;;5.69;100.00;99897.63;6270970;28;20406;-72
2022/02/16 08:06:43;;;;;;;26.33;14.50;;;;;;;5.67;100.00;99903.78;6270616;28;20053;-72
2022/02/16 08:09:44;;;;;;;22.42;10.80;;;;;;;5.56;100.00;99909.38;6270937;28;20079;-68
2022/02/16 08:12:52;;;;;;;22.00;13.48;;;;;;;5.62;100.00;99906.53;6271905;28;20041;-68
2022/02/16 08:15:53;;;;;;;26.13;14.35;;;;;;;5.74;100.00;99903.41;6271998;28;20387;-72
2022/02/16 08:18:54;;;;;;;23.60;12.77;;;;;;;5.74;100.00;99918.13;6270590;28;20140;-72
2022/02/16 08:21:56;;;;;;;25.40;14.15;;;;;;;5.82;100.00;99927.22;6271619;28;20041;-72
2022/02/16 08:24:57;;;;;;;23.90;13.23;;;;;;;5.82;100.00;99923.81;6270632;28;20047;-72
2022/02/16 08:27:58;;;;;;;26.27;14.88;;;;;;;5.87;100.00;99932.22;6270410;28;20044;-72
2022/02/16 08:30:58;;;;;;;25.20;14.88;;;;;;;5.95;100.00;99929.31;6253867;28;20140;-72
2022/02/16 08:33:59;;;;;;;28.98;14.55;;;;;;;6.07;100.00;99925.34;6273148;28;20412;-73
2022/02/16 08:37:00;;;;;;;25.80;14.98;;;;;;;6.25;100.00;99925.38;6294949;28;20056;-72
2022/02/16 08:40:03;;;;;;;29.83;15.80;;;;;;;6.33;100.00;99932.78;6277855;28;20419;-72
2022/02/16 08:43:04;;;;;;;27.65;16.02;;;;;;;6.27;100.00;99933.06;6296207;28;20058;-72
2022/02/16 08:46:04;;;;;;;25.27;15.30;;;;;;;6.50;100.00;99928.59;6296224;28;20486;-68
2022/02/16 08:49:05;;;;;;;29.95;16.17;;;;;;;6.51;100.00;99925.94;6293164;28;20407;-69
2022/02/16 08:52:06;;;;;;;30.73;16.70;;;;;;;6.39;100.00;99921.31;6274024;28;20068;-72
2022/02/16 08:55:08;;;;;;;27.70;16.20;;;;;;;6.44;100.00;99925.38;6280123;28;20079;-72
2022/02/16 08:58:12;;;;;;;22.73;14.65;;;;;;;6.39;100.00;99931.69;6253401;28;20095;-73
2022/02/16 09:01:13;;;;;;;26.15;15.52;;;;;;;6.45;100.00;99924.47;6272521;28;20080;-73
2022/02/16 09:04:15;;;;;;;39.78;19.63;;;;;;;6.59;100.00;99929.03;6274147;28;20064;-73
2022/02/16 09:07:30;;;;;;;62.28;27.45;;;;;;;6.47;100.00;99924.41;6279508;28;20033;-73
2022/02/16 09:10:32;;;;;;;45.05;22.85;;;;;;;6.42;100.00;99923.75;6270041;28;20067;-73
2022/02/16 09:13:33;;;;;;;38.67;21.88;;;;;;;6.56;100.00;99930.91;6274012;28;20384;-73
2022/02/16 09:16:34;;;;;;;38.30;21.15;;;;;;;6.52;100.00;99931.97;6276030;28;20064;-73
2022/02/16 09:19:36;;;;;;;45.97;21.02;;;;;;;6.35;100.00;99924.97;6278225;28;20041;-73
2022/02/16 09:22:38;;;;;;;47.10;25.77;;;;;;;6.25;100.00;99922.78;6287492;28;20052;-73
2022/02/16 09:25:40;;;;;;;46.17;23.38;;;;;;;6.25;100.00;99925.38;6293097;28;20541;-68
2022/02/16 09:28:41;;;;;;;48.03;26.10;;;;;;;6.45;100.00;99913.25;6277122;28;20041;-73
2022/02/16 09:31:41;;;;;;;52.60;26.05;;;;;;;6.64;100.00;99911.47;6279553;28;20045;-73
2022/02/16 09:34:45;;;;;;;56.60;26.75;;;;;;;6.90;100.00;99906.81;6300315;28;20135;-73
2022/02/16 09:37:47;;;;;;;54.30;26.90;;;;;;;6.88;100.00;99905.19;6282456;28;20071;-73
2022/02/16 09:40:50;;;;;;;50.33;27.08;;;;;;;6.73;100.00;99910.19;6275169;28;20384;-73
2022/02/16 09:43:51;;;;;;;51.53;26.00;;;;;;;6.92;100.00;99891.16;6275469;28;20044;-73
2022/02/16 09:46:52;;;;;;;52.40;25.33;;;;;;;6.84;100.00;99891.56;6274336;28;20539;-73
2022/02/16 09:49:53;;;;;;;51.35;28.02;;;;;;;6.75;100.00;99887.63;6273953;28;20044;-73
2022/02/16 09:52:54;;;;;;;58.70;26.95;;;;;;;6.88;100.00;99890.50;6273888;28;20480;-69
2022/02/16 09:55:54;;;;;;;58.03;26.27;;;;;;;6.73;100.00;99896.41;6275150;28;20055;-73
2022/02/16 09:58:55;;;;;;;59.38;27.17;;;;;;;6.67;100.00;99902.72;6240770;28;20052;-73
2022/02/16 10:02:02;;;;;;;56.30;25.25;;;;;;;6.71;100.00;99895.63;6257178;28;20061;-73
2022/02/16 10:05:05;;;;;;;69.88;30.38;;;;;;;6.50;100.00;99900.91;6290628;28;20081;-69
2022/02/16 10:08:06;;;;;;;58.40;26.02;;;;;;;6.45;100.00;99897.72;6273465;28;20087;-69
2022/02/16 10:11:08;;;;;;;70.53;28.95;;;;;;;6.52;100.00;99906.03;6293974;28;20049;-73
2022/02/16 10:14:21;;;;;;;64.68;28.20;;;;;;;6.47;100.00;99900.25;6291773;28;20049;-69
2022/02/16 10:17:27;;;;;;;66.90;28.92;;;;;;;6.29;100.00;99892.38;6291953;28;20072;-73
2022/02/16 10:20:28;;;;;;;67.95;28.30;;;;;;;6.39;100.00;99895.41;6276780;28;20045;-73
2022/02/16 10:23:44;;;;;;;78.00;30.67;;;;;;;6.44;100.00;99893.41;6276032;28;20068;-73
2022/02/16 10:26:53;;;;;;;75.07;27.90;;;;;;;6.37;100.00;99899.81;6270334;28;20056;-71
2022/02/16 10:29:54;;;;;;;75.30;29.08;;;;;;;6.31;100.00;99892.31;6274297;28;20497;-71
2022/02/16 10:33:19;;;;;;;70.97;28.67;;;;;;;6.34;100.00;99895.63;6273059;28;20037;-71
2022/02/16 10:36:23;;;;;;;73.50;31.40;;;;;;;6.50;100.00;99889.72;6273552;28;20032;-71
2022/02/16 10:39:26;;;;;;;52.67;23.45;;;;;;;6.51;100.00;99883.63;6289414;28;20068;-68
2022/02/16 10:42:28;;;;;;;63.72;27.27;;;;;;;6.62;100.00;99871.00;6282769;28;20037;-68
2022/02/16 10:45:31;;;;;;;66.68;27.52;;;;;;;6.57;100.00;99865.16;6298770;28;20505;-72
2022/02/16 10:48:32;;;;;;;60.47;25.17;;;;;;;6.71;100.00;99862.75;6285645;28;20044;-72
2022/02/16 10:51:33;;;;;;;76.80;33.03;;;;;;;6.66;100.00;99850.03;6274402;28;20045;-69
2022/02/16 10:54:34;;;;;;;64.75;25.55;;;;;;;6.73;100.00;99860.09;6279123;28;20041;-69
2022/02/16 10:57:35;;;;;;;64.05;25.98;;;;;;;6.77;100.00;99856.44;6296381;28;20060;-69
2022/02/16 11:00:38;;;;;;;65.90;28.15;;;;;;;6.98;100.00;99846.78;6297884;28;20044;-68
2022/02/16 11:03:43;;;;;;;66.45;27.20;;;;;;;6.90;100.00;99854.09;6296806;28;20097;-72
2022/02/16 11:06:47;;;;;;;57.50;26.00;;;;;;;6.93;100.00;99848.75;6297350;28;20098;-72
2022/02/16 11:09:49;;;;;;;54.05;24.73;;;;;;;7.06;100.00;99844.63;6280077;28;20056;-71
2022/02/16 11:12:50;;;;;;;55.58;25.75;;;;;;;6.96;100.00;99849.47;6296833;28;20051;-72
2022/02/16 11:15:53;;;;;;;59.92;29.45;;;;;;;7.01;100.00;99841.44;6296787;28;20144;-68
2022/02/16 11:18:59;;;;;;;56.75;27.08;;;;;;;7.13;100.00;99842.59;6297707;28;20063;-68
2022/02/16 11:22:21;;;;;;;49.25;23.48;;;;;;;7.08;100.00;99848.00;6296277;28;20533;-68
2022/02/16 11:25:41;;;;;;;41.72;22.05;;;;;;;7.18;100.00;99833.63;6296404;28;20052;-69
2022/02/16 11:28:42;;;;;;;47.83;24.15;;;;;;;7.27;100.00;99829.75;6296231;28;20044;-72
2022/02/16 11:31:42;;;;;;;50.30;26.13;;;;;;;7.23;100.00;99818.69;6296103;28;20051;-72
2022/02/16 11:34:45;;;;;;;56.25;28.58;;;;;;;7.34;100.00;99807.75;6279658;28;20475;-72
2022/02/16 11:38:07;;;;;;;58.20;26.98;;;;;;;7.28;100.00;99815.84;6295960;28;20052;-72
2022/02/16 11:41:28;;;;;;;54.17;27.20;;;;;;;7.36;100.00;99803.31;6295630;28;20064;-72
2022/02/16 11:44:48;;;;;;;55.78;27.42;;;;;;;7.49;100.00;99802.69;6297202;28;20044;-72
2022/02/16 11:47:50;;;;;;;61.10;30.23;;;;;;;7.66;100.00;99798.28;6295884;28;20053;-72
2022/02/16 11:50:51;;;;;;;59.15;31.48;;;;;;;7.66;100.00;99800.91;6295757;28;20048;-72
2022/02/16 11:53:52;;;;;;;64.13;30.98;;;;;;;7.81;100.00;99801.00;6279405;28;20048;-69
2022/02/16 11:56:53;;;;;;;63.90;31.75;;;;;;;7.67;100.00;99806.91;6279222;28;20487;-69
2022/02/16 11:59:59;;;;;;;60.30;30.52;;;;;;;7.46;100.00;99803.69;6295426;28;20056;-69
2022/02/16 12:03:05;;;;;;;60.72;32.15;;;;;;;7.39;100.00;99803.19;6296838;28;20045;-68
2022/02/16 12:06:12;;;;;;;65.10;30.90;;;;;;;7.43;100.00;99804.69;6296746;28;20128;-68
2022/02/16 12:09:24;;;;;;;62.38;32.78;;;;;;;7.24;100.00;99806.56;6295561;28;20040;-68
2022/02/16 12:12:31;;;;;;;66.68;31.33;;;;;;;7.07;100.00;99813.44;6279034;28;20434;-68
2022/02/16 12:15:35;;;;;;;60.30;29.90;;;;;;;6.89;100.00;99813.53;6295444;28;20045;-68
2022/02/16 12:18:37;;;;;;;56.33;27.70;;;;;;;7.02;100.00;99817.16;6295319;28;20487;-68
2022/02/16 12:21:46;;;;;;;;;;;;;;;6.84;100.00;99822.38;6295504;28;20557;-68
2022/02/16 12:24:47;;;;;;;57.55;26.52;;;;;;;6.90;100.00;99815.19;6295126;28;19920;-69
2022/02/16 12:27:48;;;;;;;58.75;26.15;;;;;;;6.82;100.00;99805.22;6296323;28;20056;-68
2022/02/16 12:30:48;;;;;;;61.05;26.10;;;;;;;6.66;100.00;99803.34;6278357;28;20074;-72
2022/02/16 12:33:58;;;;;;;66.20;27.50;;;;;;;6.56;100.00;99803.88;6295010;28;20040;-72
2022/02/16 12:37:03;;;;;;;69.15;29.52;;;;;;;6.59;100.00;99808.91;6296201;28;20063;-68
2022/02/16 12:40:10;;;;;;;66.63;28.27;;;;;;;6.51;100.00;99809.28;6277749;28;20059;-68
2022/02/16 12:43:11;;;;;;;72.47;31.65;;;;;;;6.48;100.00;99809.44;6296006;28;20037;-72
2022/02/16 12:46:12;;;;;;;78.88;35.08;;;;;;;6.54;100.00;99797.94;6278079;28;20376;-72
2022/02/16 12:49:16;;;;;;;74.25;30.38;;;;;;;6.35;100.00;99804.00;6277786;28;20040;-72
2022/02/16 12:52:17;;;;;;;62.45;28.95;;;;;;;6.49;100.00;99800.75;6277912;28;20045;-72
2022/02/16 12:55:18;;;;;;;63.53;29.08;;;;;;;6.40;100.00;99803.75;6294710;28;20069;-72
2022/02/16 12:58:24;;;;;;;68.65;31.42;;;;;;;6.39;100.00;99807.28;6294662;28;20523;-72
2022/02/16 13:01:29;;;;;;;68.55;30.00;;;;;;;6.39;100.00;99799.50;6295754;28;20036;-72
2022/02/16 13:04:30;;;;;;;73.22;30.10;;;;;;;6.35;100.00;99788.44;6294633;28;20147;-73
2022/02/16 13:07:33;;;;;;;86.85;32.10;;;;;;;6.37;100.00;99781.44;6294409;28;20132;-72
2022/02/16 13:10:36;;;;;;;69.03;28.48;;;;;;;6.36;100.00;99782.38;6294364;28;20417;-72
2022/02/16 13:13:37;;;;;;;80.68;31.15;;;;;;;6.41;100.00;99779.53;6295659;28;20528;-72
2022/02/16 13:16:38;;;;;;;81.78;35.65;;;;;;;6.43;100.00;99778.56;6277796;28;20085;-68
2022/02/16 13:19:41;;;;;;;67.47;30.25;;;;;;;6.34;100.00;99776.41;6294166;28;20052;-68
2022/02/16 13:22:57;;;;;;;65.18;28.77;;;;;;;6.32;100.00;99765.28;6295625;28;20138;-69
2022/02/16 13:26:06;;;;;;;65.57;29.40;;;;;;;6.31;100.00;99768.78;6295521;28;20062;-72
2022/02/16 13:29:08;;;;;;;65.80;28.55;;;;;;;6.23;100.00;99771.72;6294383;28;20033;-72
2022/02/16 13:32:29;;;;;;;65.30;28.08;;;;;;;6.28;100.00;99774.13;6294096;28;20123;-72
2022/02/16 13:35:31;;;;;;;60.72;27.27;;;;;;;6.35;100.00;99779.84;6277767;28;20045;-73
2022/02/16 13:38:34;;;;;;;59.13;26.60;;;;;;;6.43;100.00;99772.53;6295332;28;20076;-73
2022/02/16 13:41:36;;;;;;;60.80;26.08;;;;;;;6.47;100.00;99773.25;6277165;28;20297;-73
2022/02/16 13:44:38;;;;;;;54.80;25.98;;;;;;;6.51;100.00;99770.41;6277365;28;20490;-69
2022/02/16 13:47:50;;;;;;;56.00;25.02;;;;;;;6.37;100.00;99770.25;6294384;28;20482;-69
2022/02/16 13:50:53;;;;;;;53.78;24.35;;;;;;;6.41;100.00;99764.00;6295194;28;20442;-73
2022/02/16 13:53:56;;;;;;;50.92;22.88;;;;;;;6.36;100.00;99755.59;6261166;28;20052;-73
2022/02/16 13:56:58;;;;;;;52.60;23.40;;;;;;;6.29;100.00;99749.88;6293830;28;20048;-73